createdAt,value
2018-11-23T00:00:40.079Z,94.22
2018-11-23T00:05:42.409Z,94.32
2018-11-23T00:10:59.644Z,93.83
2018-11-23T00:16:01.955Z,94.50
2018-11-23T00:21:04.625Z,93.94
2018-11-23T00:26:06.912Z,94.15
2018-11-23T00:31:09.229Z,94.21
2018-11-23T00:36:11.631Z,93.92
2018-11-23T00:41:13.984Z,93.66
2018-11-23T00:46:16.367Z,93.64
2018-11-23T00:51:18.661Z,94.25
2018-11-23T00:56:20.938Z,93.56
2018-11-23T01:01:23.228Z,93.64
2018-11-23T01:06:25.558Z,93.59
2018-11-23T01:11:27.832Z,93.91
2018-11-23T01:16:30.106Z,93.97
2018-11-23T01:21:32.482Z,94.18
2018-11-23T01:26:34.879Z,93.46
2018-11-23T01:31:37.210Z,93.97
2018-11-23T01:36:39.500Z,93.52
2018-11-23T01:41:41.786Z,93.55
2018-11-23T01:46:44.134Z,94.03
2018-11-23T01:51:46.503Z,94.00
2018-11-23T01:56:48.809Z,93.45
2018-11-23T02:01:51.209Z,93.84
2018-11-23T02:06:53.693Z,93.55
2018-11-23T02:11:55.946Z,94.20
2018-11-23T02:16:58.215Z,93.54
2018-11-23T02:22:00.537Z,93.95
2018-11-23T02:27:02.804Z,93.64
2018-11-23T02:32:05.344Z,92.79
2018-11-23T02:37:07.705Z,93.50
2018-11-23T02:42:09.976Z,93.36
2018-11-23T02:47:12.241Z,92.59
2018-11-23T02:52:15.300Z,92.44
2018-11-23T02:57:17.613Z,92.21
2018-11-23T03:02:19.892Z,92.08
2018-11-23T03:07:22.154Z,92.15
2018-11-23T03:12:24.452Z,92.32
2018-11-23T03:17:26.736Z,92.57
2018-11-23T03:22:29.172Z,92.13
2018-11-23T03:27:31.440Z,92.73
2018-11-23T03:32:33.740Z,92.37
2018-11-23T03:37:36.187Z,92.15
2018-11-23T03:42:38.570Z,92.71
2018-11-23T03:47:41.579Z,92.68
2018-11-23T03:52:44.270Z,92.90
2018-11-23T03:57:46.560Z,92.39
2018-11-23T04:02:49.476Z,92.55
2018-11-23T04:07:51.745Z,92.33
2018-11-23T04:12:54.140Z,91.83
2018-11-23T04:17:56.528Z,91.75
2018-11-23T04:22:58.911Z,91.61
2018-11-23T04:28:01.291Z,91.59
2018-11-23T04:33:04.203Z,91.19
2018-11-23T04:38:07.755Z,91.24
2018-11-23T04:43:10.050Z,91.32
2018-11-23T04:48:12.345Z,91.58
2018-11-23T04:53:14.883Z,91.08
2018-11-23T04:58:17.169Z,91.72
2018-11-23T05:03:19.552Z,91.66
2018-11-23T05:08:21.816Z,90.88
2018-11-23T05:13:24.206Z,90.90
2018-11-23T05:18:26.490Z,90.49
2018-11-23T05:23:28.806Z,90.08
2018-11-23T05:28:31.147Z,90.34
2018-11-23T05:33:33.470Z,89.76
2018-11-23T05:38:36.780Z,89.92
2018-11-23T05:43:39.076Z,89.94
2018-11-23T05:48:41.364Z,89.95
2018-11-23T05:53:43.752Z,90.12
2018-11-23T05:58:46.022Z,90.32
2018-11-23T06:03:48.296Z,90.62
2018-11-23T06:08:50.990Z,90.10
2018-11-23T06:13:53.304Z,90.17
2018-11-23T06:18:55.764Z,90.57
2018-11-23T06:23:58.096Z,90.18
2018-11-23T06:29:00.466Z,90.60
2018-11-23T06:34:02.754Z,90.45
2018-11-23T06:39:07.405Z,90.53
2018-11-23T06:44:09.736Z,91.17
2018-11-23T06:49:12.017Z,91.39
2018-11-23T06:54:14.605Z,91.83
2018-11-23T06:59:16.719Z,91.52
2018-11-23T07:04:19.029Z,92.31
2018-11-23T07:09:21.307Z,92.17
2018-11-23T07:14:23.579Z,92.37
2018-11-23T07:19:25.964Z,92.43
2018-11-23T07:24:28.394Z,92.67
2018-11-23T07:29:30.672Z,92.49
2018-11-23T07:34:32.986Z,93.02
2018-11-23T07:39:46.864Z,92.45
2018-11-23T07:44:49.200Z,92.39
2018-11-23T07:49:51.546Z,92.80
2018-11-23T07:54:53.908Z,92.82
2018-11-23T07:59:56.197Z,92.43
2018-11-23T08:04:58.487Z,92.45
2018-11-23T08:10:00.296Z,92.68
2018-11-23T08:15:02.648Z,91.85
2018-11-23T08:20:05.633Z,92.43
2018-11-23T08:25:08.908Z,91.39
2018-11-23T08:30:30.486Z,91.41
2018-11-23T08:35:32.857Z,91.64
2018-11-23T08:40:35.173Z,90.76
2018-11-23T08:45:37.461Z,91.49
2018-11-23T08:50:39.735Z,90.82
2018-11-23T08:55:42.116Z,91.19
2018-11-23T09:00:44.409Z,89.57
2018-11-23T09:05:46.697Z,88.56
2018-11-23T09:10:49.046Z,88.91
2018-11-23T09:15:51.342Z,88.26
2018-11-23T09:20:53.942Z,87.65
2018-11-23T09:25:56.287Z,88.16
2018-11-23T09:30:58.696Z,86.40
2018-11-23T09:36:00.966Z,86.24
2018-11-23T09:41:03.312Z,85.95
2018-11-23T09:46:05.998Z,86.68
2018-11-23T09:51:08.358Z,85.51
2018-11-23T09:56:10.786Z,86.46
2018-11-23T10:01:13.075Z,86.54
2018-11-23T10:06:15.356Z,86.95
2018-11-23T10:11:17.651Z,87.46
2018-11-23T10:16:20.296Z,87.96
2018-11-23T10:21:22.562Z,88.01
2018-11-23T10:26:24.923Z,88.68
2018-11-23T10:31:27.233Z,87.78
2018-11-23T10:36:29.538Z,88.41
2018-11-23T10:41:31.833Z,87.55
2018-11-23T10:46:34.145Z,88.09
2018-11-23T10:51:36.706Z,88.58
2018-11-23T10:56:39.106Z,88.12
2018-11-23T11:01:46.976Z,87.43
2018-11-23T11:06:49.931Z,87.58
2018-11-23T11:11:52.203Z,87.51
2018-11-23T11:16:54.478Z,87.48
2018-11-23T11:21:56.785Z,87.71
2018-11-23T11:26:59.377Z,87.71
2018-11-23T11:32:01.716Z,86.76
2018-11-23T11:37:04.254Z,87.48
2018-11-23T11:42:07.789Z,87.20
2018-11-23T11:47:10.244Z,86.76
2018-11-23T11:52:12.559Z,86.98
2018-11-23T11:57:15.047Z,87.16
2018-11-23T12:02:17.376Z,86.83
2018-11-23T12:07:19.642Z,86.44
2018-11-23T12:12:21.952Z,86.68
2018-11-23T12:17:24.305Z,86.66
2018-11-23T12:22:26.595Z,86.39
2018-11-23T12:27:29.500Z,86.57
2018-11-23T12:32:31.449Z,86.07
2018-11-23T12:37:33.767Z,85.56
2018-11-23T12:42:36.101Z,85.40
2018-11-23T12:47:38.637Z,85.54
2018-11-23T12:52:40.942Z,84.47
2018-11-23T12:57:43.551Z,84.79
2018-11-23T13:02:47.020Z,83.68
2018-11-23T13:07:50.106Z,83.33
2018-11-23T13:12:52.901Z,84.79
2018-11-23T13:17:55.805Z,85.00
2018-11-23T13:22:58.123Z,84.55
2018-11-23T13:28:00.681Z,85.86
2018-11-23T13:33:03.180Z,85.00
2018-11-23T13:38:05.480Z,83.95
2018-11-23T13:43:07.779Z,84.24
2018-11-23T13:48:10.075Z,83.66
2018-11-23T13:53:13.493Z,83.30
2018-11-23T13:58:15.836Z,83.36
2018-11-23T14:03:18.113Z,82.44
2018-11-23T14:08:20.557Z,82.86
2018-11-23T14:13:22.859Z,82.61
2018-11-23T14:18:25.248Z,82.59
2018-11-23T14:23:27.648Z,82.62
2018-11-23T14:28:30.029Z,81.52
2018-11-23T14:33:33.513Z,82.36
2018-11-23T14:38:36.357Z,83.54
2018-11-23T14:43:38.686Z,83.00
2018-11-23T14:48:41.168Z,84.11
2018-11-23T14:53:43.513Z,83.94
2018-11-23T14:58:46.153Z,84.71
2018-11-23T15:03:49.184Z,85.38
2018-11-23T15:08:52.061Z,87.04
2018-11-23T15:13:54.521Z,87.32
2018-11-23T15:18:56.880Z,87.17
2018-11-23T15:24:00.922Z,88.05
2018-11-23T15:29:02.594Z,87.94
2018-11-23T15:34:05.332Z,88.99
2018-11-23T15:39:09.777Z,89.38
2018-11-23T15:44:12.097Z,88.87
2018-11-23T15:49:14.484Z,90.14
2018-11-23T15:54:16.837Z,90.31
2018-11-23T15:59:20.172Z,90.72
2018-11-23T16:04:25.160Z,90.49
2018-11-23T16:09:28.219Z,90.48
2018-11-23T16:14:32.633Z,89.55
2018-11-23T16:19:35.040Z,89.11
2018-11-23T16:24:37.674Z,90.44
2018-11-23T16:29:40.118Z,90.71
2018-11-23T16:34:42.878Z,91.43
2018-11-23T16:39:45.463Z,90.38
2018-11-23T16:44:47.827Z,91.15
2018-11-23T16:49:50.452Z,91.44
2018-11-23T16:54:53.157Z,91.41
2018-11-23T16:59:57.106Z,91.33
2018-11-23T17:04:59.399Z,91.71
2018-11-23T17:10:02.260Z,92.34
2018-11-23T17:15:05.877Z,92.25
2018-11-23T17:20:11.359Z,93.11
2018-11-23T17:25:15.175Z,92.52
2018-11-23T17:30:23.123Z,92.49
2018-11-23T17:35:25.604Z,92.90
2018-11-23T17:40:29.684Z,93.25
2018-11-23T17:45:32.553Z,92.84
2018-11-23T17:50:36.044Z,92.89
2018-11-23T17:55:38.439Z,93.17
2018-11-23T18:00:41.712Z,93.61
2018-11-23T18:05:44.067Z,93.12
2018-11-23T18:10:46.384Z,93.20
2018-11-23T18:15:48.784Z,93.67
2018-11-23T18:20:51.139Z,93.23
2018-11-23T18:25:53.527Z,93.30
2018-11-23T18:30:55.963Z,93.66
2018-11-23T18:35:58.504Z,93.56
2018-11-23T18:41:01.330Z,92.93
2018-11-23T18:46:03.776Z,93.57
2018-11-23T18:51:06.159Z,93.67
2018-11-23T18:56:09.474Z,93.94
2018-11-23T19:01:12.204Z,93.38
2018-11-23T19:06:14.522Z,93.45
2018-11-23T19:11:16.960Z,94.01
2018-11-23T19:16:19.264Z,93.73
2018-11-23T19:21:22.322Z,94.08
2018-11-23T19:26:24.725Z,93.87
2018-11-23T19:31:27.424Z,93.96
2018-11-23T19:36:29.962Z,94.10
2018-11-23T19:41:32.461Z,93.72
2018-11-23T19:46:34.805Z,93.91
2018-11-23T19:51:37.121Z,93.82
2018-11-23T19:56:39.452Z,93.26
2018-11-23T20:01:41.850Z,93.56
2018-11-23T20:06:44.600Z,93.80
2018-11-23T20:11:47.021Z,93.53
2018-11-23T20:16:49.420Z,93.50
2018-11-23T20:21:51.818Z,92.79
2018-11-23T20:26:54.460Z,93.07
2018-11-23T20:31:57.488Z,93.28
2018-11-23T20:37:00.011Z,93.21
2018-11-23T20:42:02.410Z,93.54
2018-11-23T20:47:05.121Z,93.29
2018-11-23T20:52:07.495Z,93.07
2018-11-23T20:57:09.836Z,92.78
2018-11-23T21:02:12.866Z,93.27
2018-11-23T21:07:15.284Z,92.36
2018-11-23T21:12:18.488Z,93.07
2018-11-23T21:17:20.850Z,92.65
2018-11-23T21:22:23.239Z,92.69
2018-11-23T21:27:25.535Z,92.39
2018-11-23T21:32:28.012Z,93.23
2018-11-23T21:37:30.482Z,92.51
2018-11-23T21:42:32.912Z,93.24
2018-11-23T21:47:35.290Z,93.09
2018-11-23T21:52:37.655Z,92.99
2018-11-23T21:57:39.997Z,92.91
2018-11-23T22:02:43.165Z,93.17
2018-11-23T22:07:45.656Z,93.35
2018-11-23T22:12:48.107Z,93.06
2018-11-23T22:17:51.841Z,92.34
2018-11-23T22:22:54.212Z,92.02
2018-11-23T22:27:56.664Z,92.84
2018-11-23T22:32:59.265Z,93.46
2018-11-23T22:38:01.628Z,93.33
2018-11-23T22:43:04.253Z,94.13
2018-11-23T22:48:06.870Z,93.60
2018-11-23T22:53:09.213Z,94.38
2018-11-23T22:58:11.626Z,94.57
2018-11-23T23:03:14.086Z,94.04
2018-11-23T23:08:16.437Z,93.10
2018-11-23T23:13:19.580Z,93.49
2018-11-23T23:18:22.057Z,92.86
2018-11-23T23:23:24.456Z,92.65
2018-11-23T23:28:27.460Z,93.59
2018-11-23T23:33:30.074Z,93.22
2018-11-23T23:38:32.448Z,92.94
2018-11-23T23:43:34.749Z,92.96
2018-11-23T23:48:37.140Z,92.90
2018-11-23T23:53:39.458Z,92.56
2018-11-23T23:58:41.798Z,92.84
